sim
Sign-in with your pilot id or email,
or register
Callsign
Passwort

Schedule Details

Flight Number: DLH2205
Departure: Cologne Bonn Airport (EDDK) at 18:45
Arrival: Munich Airport (EDDM) at 19:50
Route: Lufthansa Passenger Schedule. Enter filed route here before submitting Pirep.

Weather Information
Getting current METAR information for EDDK 010450Z 13008KT CAVOK 12/10 Q1005 NOSIG
Getting current METAR information for EDDM 010450Z 05002KT 0600 R08L/0900U R08R/0600U FG SCT001 03/03 Q1009 BECMG 0500 BKN001

Schedule Frequency

Route Map